sensor_id;sensor_type;location;lat;lon;timestamp;P1;durP1;ratioP1;P2;durP2;ratioP2
63398;SDS011;49533;-34.520;150.798;2023-04-28T00:01:44;2.28;;;2.00;;
63398;SDS011;49533;-34.520;150.798;2023-04-28T00:04:11;2.50;;;2.13;;
63398;SDS011;49533;-34.520;150.798;2023-04-28T00:06:38;1.55;;;1.42;;
63398;SDS011;49533;-34.520;150.798;2023-04-28T00:09:06;1.92;;;1.73;;
63398;SDS011;49533;-34.520;150.798;2023-04-28T00:11:36;2.55;;;1.50;;
63398;SDS011;49533;-34.520;150.798;2023-04-28T00:14:04;2.30;;;1.65;;
63398;SDS011;49533;-34.520;150.798;2023-04-28T00:16:31;1.90;;;1.65;;
63398;SDS011;49533;-34.520;150.798;2023-04-28T00:18:58;1.83;;;1.65;;
63398;SDS011;49533;-34.520;150.798;2023-04-28T00:21:25;1.80;;;1.65;;
63398;SDS011;49533;-34.520;150.798;2023-04-28T00:23:53;3.22;;;1.63;;
63398;SDS011;49533;-34.520;150.798;2023-04-28T00:26:20;2.65;;;1.70;;
63398;SDS011;49533;-34.520;150.798;2023-04-28T00:28:48;2.90;;;1.60;;
63398;SDS011;49533;-34.520;150.798;2023-04-28T00:31:16;1.38;;;1.17;;
63398;SDS011;49533;-34.520;150.798;2023-04-28T00:33:43;1.55;;;1.45;;
63398;SDS011;49533;-34.520;150.798;2023-04-28T00:36:10;2.60;;;1.25;;
63398;SDS011;49533;-34.520;150.798;2023-04-28T00:38:38;3.22;;;1.42;;
63398;SDS011;49533;-34.520;150.798;2023-04-28T00:41:05;1.58;;;1.33;;
63398;SDS011;49533;-34.520;150.798;2023-04-28T00:43:44;1.35;;;1.20;;
63398;SDS011;49533;-34.520;150.798;2023-04-28T00:46:16;1.55;;;1.23;;
63398;SDS011;49533;-34.520;150.798;2023-04-28T00:48:48;1.85;;;1.45;;
63398;SDS011;49533;-34.520;150.798;2023-04-28T00:51:15;1.25;;;1.13;;
63398;SDS011;49533;-34.520;150.798;2023-04-28T00:53:43;2.08;;;1.08;;
63398;SDS011;49533;-34.520;150.798;2023-04-28T00:56:10;1.42;;;1.00;;
63398;SDS011;49533;-34.520;150.798;2023-04-28T00:58:38;1.45;;;1.23;;
63398;SDS011;49533;-34.520;150.798;2023-04-28T01:01:07;1.30;;;1.17;;
63398;SDS011;49533;-34.520;150.798;2023-04-28T01:03:36;1.98;;;1.45;;
63398;SDS011;49533;-34.520;150.798;2023-04-28T01:06:05;1.13;;;1.02;;
63398;SDS011;49533;-34.520;150.798;2023-04-28T01:08:34;1.75;;;1.23;;
63398;SDS011;49533;-34.520;150.798;2023-04-28T01:11:02;1.38;;;1.10;;
63398;SDS011;49533;-34.520;150.798;2023-04-28T01:13:30;1.60;;;1.40;;
63398;SDS011;49533;-34.520;150.798;2023-04-28T01:15:57;1.40;;;1.00;;
63398;SDS011;49533;-34.520;150.798;2023-04-28T01:18:25;1.95;;;0.90;;
63398;SDS011;49533;-34.520;150.798;2023-04-28T01:20:53;2.42;;;1.20;;
63398;SDS011;49533;-34.520;150.798;2023-04-28T01:23:20;3.97;;;1.40;;
63398;SDS011;49533;-34.520;150.798;2023-04-28T01:25:47;2.03;;;0.98;;
63398;SDS011;49533;-34.520;150.798;2023-04-28T01:28:15;1.15;;;0.80;;
63398;SDS011;49533;-34.520;150.798;2023-04-28T01:30:42;1.65;;;1.10;;
63398;SDS011;49533;-34.520;150.798;2023-04-28T01:33:10;1.45;;;0.98;;
63398;SDS011;49533;-34.520;150.798;2023-04-28T01:35:37;1.98;;;1.05;;
63398;SDS011;49533;-34.520;150.798;2023-04-28T01:38:04;1.20;;;1.10;;
63398;SDS011;49533;-34.520;150.798;2023-04-28T01:40:31;1.38;;;1.13;;
63398;SDS011;49533;-34.520;150.798;2023-04-28T01:42:59;0.95;;;0.93;;
63398;SDS011;49533;-34.520;150.798;2023-04-28T01:45:26;0.93;;;0.93;;
63398;SDS011;49533;-34.520;150.798;2023-04-28T01:47:53;1.20;;;1.10;;
63398;SDS011;49533;-34.520;150.798;2023-04-28T01:50:20;1.38;;;0.95;;
63398;SDS011;49533;-34.520;150.798;2023-04-28T01:52:47;2.70;;;1.20;;
63398;SDS011;49533;-34.520;150.798;2023-04-28T01:55:15;1.45;;;1.35;;
63398;SDS011;49533;-34.520;150.798;2023-04-28T01:57:42;1.30;;;1.17;;
63398;SDS011;49533;-34.520;150.798;2023-04-28T02:00:09;1.35;;;1.20;;
63398;SDS011;49533;-34.520;150.798;2023-04-28T02:02:36;1.25;;;1.08;;
63398;SDS011;49533;-34.520;150.798;2023-04-28T02:05:04;3.10;;;1.35;;
63398;SDS011;49533;-34.520;150.798;2023-04-28T02:07:32;1.35;;;0.93;;
63398;SDS011;49533;-34.520;150.798;2023-04-28T02:09:59;1.50;;;1.30;;
63398;SDS011;49533;-34.520;150.798;2023-04-28T02:12:26;1.95;;;1.30;;
63398;SDS011;49533;-34.520;150.798;2023-04-28T02:14:53;1.30;;;1.00;;
63398;SDS011;49533;-34.520;150.798;2023-04-28T02:17:21;1.90;;;1.25;;
63398;SDS011;49533;-34.520;150.798;2023-04-28T02:19:53;1.55;;;0.82;;
63398;SDS011;49533;-34.520;150.798;2023-04-28T02:22:22;1.60;;;1.10;;
63398;SDS011;49533;-34.520;150.798;2023-04-28T02:24:49;1.83;;;1.08;;
63398;SDS011;49533;-34.520;150.798;2023-04-28T02:27:17;2.40;;;1.13;;
63398;SDS011;49533;-34.520;150.798;2023-04-28T02:29:44;1.45;;;1.05;;
63398;SDS011;49533;-34.520;150.798;2023-04-28T02:32:11;1.38;;;0.90;;
63398;SDS011;49533;-34.520;150.798;2023-04-28T02:34:38;1.60;;;1.00;;
63398;SDS011;49533;-34.520;150.798;2023-04-28T02:37:05;0.95;;;0.90;;
63398;SDS011;49533;-34.520;150.798;2023-04-28T02:39:33;1.73;;;1.30;;
63398;SDS011;49533;-34.520;150.798;2023-04-28T02:42:00;1.85;;;1.10;;
63398;SDS011;49533;-34.520;150.798;2023-04-28T02:44:29;3.72;;;1.20;;
63398;SDS011;49533;-34.520;150.798;2023-04-28T02:46:57;1.52;;;1.25;;
63398;SDS011;49533;-34.520;150.798;2023-04-28T02:49:25;1.95;;;1.00;;
63398;SDS011;49533;-34.520;150.798;2023-04-28T02:51:52;2.08;;;1.55;;
63398;SDS011;49533;-34.520;150.798;2023-04-28T02:54:19;1.33;;;1.05;;
63398;SDS011;49533;-34.520;150.798;2023-04-28T02:56:53;1.70;;;1.20;;
63398;SDS011;49533;-34.520;150.798;2023-04-28T02:59:20;1.88;;;1.13;;
63398;SDS011;49533;-34.520;150.798;2023-04-28T03:01:49;1.45;;;0.82;;
63398;SDS011;49533;-34.520;150.798;2023-04-28T03:04:16;2.55;;;1.08;;
63398;SDS011;49533;-34.520;150.798;2023-04-28T03:06:44;2.25;;;1.10;;
63398;SDS011;49533;-34.520;150.798;2023-04-28T03:09:12;2.78;;;1.10;;
63398;SDS011;49533;-34.520;150.798;2023-04-28T03:11:40;1.00;;;0.90;;
63398;SDS011;49533;-34.520;150.798;2023-04-28T03:14:07;1.38;;;1.00;;
63398;SDS011;49533;-34.520;150.798;2023-04-28T03:16:34;1.65;;;0.98;;
63398;SDS011;49533;-34.520;150.798;2023-04-28T03:19:02;1.15;;;0.90;;
63398;SDS011;49533;-34.520;150.798;2023-04-28T03:21:29;1.08;;;0.82;;
63398;SDS011;49533;-34.520;150.798;2023-04-28T03:23:56;1.85;;;1.15;;
63398;SDS011;49533;-34.520;150.798;2023-04-28T03:26:24;3.80;;;1.33;;
63398;SDS011;49533;-34.520;150.798;2023-04-28T03:28:51;2.33;;;1.20;;
63398;SDS011;49533;-34.520;150.798;2023-04-28T03:31:18;1.90;;;1.02;;
63398;SDS011;49533;-34.520;150.798;2023-04-28T03:33:45;1.45;;;0.90;;
63398;SDS011;49533;-34.520;150.798;2023-04-28T03:36:12;2.53;;;1.02;;
63398;SDS011;49533;-34.520;150.798;2023-04-28T03:38:39;1.27;;;1.17;;
63398;SDS011;49533;-34.520;150.798;2023-04-28T03:41:07;3.70;;;1.10;;
63398;SDS011;49533;-34.520;150.798;2023-04-28T03:43:35;2.13;;;1.05;;
63398;SDS011;49533;-34.520;150.798;2023-04-28T03:46:03;2.45;;;1.13;;
63398;SDS011;49533;-34.520;150.798;2023-04-28T03:48:30;1.00;;;0.80;;
63398;SDS011;49533;-34.520;150.798;2023-04-28T03:50:57;1.35;;;0.85;;
63398;SDS011;49533;-34.520;150.798;2023-04-28T03:53:24;3.30;;;1.23;;
63398;SDS011;49533;-34.520;150.798;2023-04-28T03:55:52;1.20;;;1.02;;
63398;SDS011;49533;-34.520;150.798;2023-04-28T03:58:19;3.13;;;1.10;;
63398;SDS011;49533;-34.520;150.798;2023-04-28T04:00:46;3.28;;;1.33;;
63398;SDS011;49533;-34.520;150.798;2023-04-28T04:03:13;1.23;;;0.98;;
63398;SDS011;49533;-34.520;150.798;2023-04-28T04:05:40;1.25;;;1.10;;
63398;SDS011;49533;-34.520;150.798;2023-04-28T04:08:07;1.92;;;1.13;;
63398;SDS011;49533;-34.520;150.798;2023-04-28T04:10:34;1.73;;;1.00;;
63398;SDS011;49533;-34.520;150.798;2023-04-28T04:13:02;2.42;;;1.33;;
63398;SDS011;49533;-34.520;150.798;2023-04-28T04:15:30;3.13;;;1.13;;
63398;SDS011;49533;-34.520;150.798;2023-04-28T04:17:57;1.90;;;1.02;;
63398;SDS011;49533;-34.520;150.798;2023-04-28T04:20:25;2.03;;;0.98;;
63398;SDS011;49533;-34.520;150.798;2023-04-28T04:22:52;2.78;;;1.02;;
63398;SDS011;49533;-34.520;150.798;2023-04-28T04:25:19;2.83;;;1.02;;
63398;SDS011;49533;-34.520;150.798;2023-04-28T04:27:46;2.63;;;1.02;;
63398;SDS011;49533;-34.520;150.798;2023-04-28T04:30:14;1.38;;;1.27;;
63398;SDS011;49533;-34.520;150.798;2023-04-28T04:32:41;1.27;;;1.10;;
63398;SDS011;49533;-34.520;150.798;2023-04-28T04:35:08;3.00;;;0.90;;
63398;SDS011;49533;-34.520;150.798;2023-04-28T04:37:35;1.17;;;0.85;;
63398;SDS011;49533;-34.520;150.798;2023-04-28T04:40:02;1.58;;;1.27;;
63398;SDS011;49533;-34.520;150.798;2023-04-28T04:42:30;1.40;;;1.13;;
63398;SDS011;49533;-34.520;150.798;2023-04-28T04:44:58;3.13;;;0.98;;
63398;SDS011;49533;-34.520;150.798;2023-04-28T04:47:25;2.55;;;1.05;;
63398;SDS011;49533;-34.520;150.798;2023-04-28T04:49:55;1.50;;;1.08;;
63398;SDS011;49533;-34.520;150.798;2023-04-28T04:52:23;1.52;;;1.00;;
63398;SDS011;49533;-34.520;150.798;2023-04-28T04:54:50;1.50;;;1.33;;
63398;SDS011;49533;-34.520;150.798;2023-04-28T04:57:17;2.40;;;1.20;;
63398;SDS011;49533;-34.520;150.798;2023-04-28T04:59:44;3.47;;;1.05;;
63398;SDS011;49533;-34.520;150.798;2023-04-28T05:02:11;2.83;;;1.17;;
63398;SDS011;49533;-34.520;150.798;2023-04-28T05:04:39;1.05;;;0.80;;
63398;SDS011;49533;-34.520;150.798;2023-04-28T05:07:06;2.03;;;1.17;;
63398;SDS011;49533;-34.520;150.798;2023-04-28T05:09:33;1.10;;;1.00;;
63398;SDS011;49533;-34.520;150.798;2023-04-28T05:12:00;1.00;;;0.85;;
63398;SDS011;49533;-34.520;150.798;2023-04-28T05:14:27;1.65;;;0.82;;
63398;SDS011;49533;-34.520;150.798;2023-04-28T05:16:55;3.13;;;0.77;;
63398;SDS011;49533;-34.520;150.798;2023-04-28T05:19:22;1.98;;;1.02;;
63398;SDS011;49533;-34.520;150.798;2023-04-28T05:21:49;1.58;;;1.08;;
63398;SDS011;49533;-34.520;150.798;2023-04-28T05:24:20;3.10;;;1.00;;
63398;SDS011;49533;-34.520;150.798;2023-04-28T05:26:49;1.77;;;1.10;;
63398;SDS011;49533;-34.520;150.798;2023-04-28T05:29:19;1.45;;;1.20;;
63398;SDS011;49533;-34.520;150.798;2023-04-28T05:31:46;1.17;;;0.95;;
63398;SDS011;49533;-34.520;150.798;2023-04-28T05:34:13;1.63;;;1.08;;
63398;SDS011;49533;-34.520;150.798;2023-04-28T05:36:41;2.05;;;1.08;;
63398;SDS011;49533;-34.520;150.798;2023-04-28T05:39:08;1.38;;;1.20;;
63398;SDS011;49533;-34.520;150.798;2023-04-28T05:41:36;6.93;;;1.50;;
63398;SDS011;49533;-34.520;150.798;2023-04-28T05:44:03;2.22;;;1.20;;
63398;SDS011;49533;-34.520;150.798;2023-04-28T05:46:31;1.30;;;1.02;;
63398;SDS011;49533;-34.520;150.798;2023-04-28T05:48:59;1.60;;;1.00;;
63398;SDS011;49533;-34.520;150.798;2023-04-28T05:51:26;1.77;;;1.25;;
63398;SDS011;49533;-34.520;150.798;2023-04-28T05:53:54;2.25;;;1.50;;
63398;SDS011;49533;-34.520;150.798;2023-04-28T05:56:21;2.17;;;0.98;;
63398;SDS011;49533;-34.520;150.798;2023-04-28T05:58:48;2.00;;;0.85;;
63398;SDS011;49533;-34.520;150.798;2023-04-28T06:01:16;3.47;;;1.30;;
63398;SDS011;49533;-34.520;150.798;2023-04-28T06:03:43;2.92;;;1.10;;
63398;SDS011;49533;-34.520;150.798;2023-04-28T06:06:10;2.42;;;1.27;;
63398;SDS011;49533;-34.520;150.798;2023-04-28T06:08:38;5.05;;;1.15;;
63398;SDS011;49533;-34.520;150.798;2023-04-28T06:11:05;2.05;;;1.13;;
63398;SDS011;49533;-34.520;150.798;2023-04-28T06:13:33;3.30;;;1.30;;
63398;SDS011;49533;-34.520;150.798;2023-04-28T06:16:00;2.10;;;1.35;;
63398;SDS011;49533;-34.520;150.798;2023-04-28T06:18:28;5.03;;;1.48;;
63398;SDS011;49533;-34.520;150.798;2023-04-28T06:20:58;1.63;;;1.10;;
63398;SDS011;49533;-34.520;150.798;2023-04-28T06:23:26;2.13;;;1.20;;
63398;SDS011;49533;-34.520;150.798;2023-04-28T06:25:53;2.50;;;1.35;;
63398;SDS011;49533;-34.520;150.798;2023-04-28T06:28:20;2.92;;;1.13;;
63398;SDS011;49533;-34.520;150.798;2023-04-28T06:30:47;1.67;;;1.27;;
63398;SDS011;49533;-34.520;150.798;2023-04-28T06:33:15;1.75;;;1.10;;
63398;SDS011;49533;-34.520;150.798;2023-04-28T06:35:42;3.63;;;1.30;;
63398;SDS011;49533;-34.520;150.798;2023-04-28T06:38:09;2.53;;;1.02;;
63398;SDS011;49533;-34.520;150.798;2023-04-28T06:40:36;2.58;;;1.10;;
63398;SDS011;49533;-34.520;150.798;2023-04-28T06:43:05;2.08;;;1.13;;
63398;SDS011;49533;-34.520;150.798;2023-04-28T06:45:32;2.38;;;1.00;;
63398;SDS011;49533;-34.520;150.798;2023-04-28T06:47:59;2.20;;;1.20;;
63398;SDS011;49533;-34.520;150.798;2023-04-28T06:50:26;5.22;;;1.73;;
63398;SDS011;49533;-34.520;150.798;2023-04-28T06:52:54;4.40;;;1.30;;
63398;SDS011;49533;-34.520;150.798;2023-04-28T06:55:23;4.20;;;1.27;;
63398;SDS011;49533;-34.520;150.798;2023-04-28T06:57:51;2.40;;;1.08;;
63398;SDS011;49533;-34.520;150.798;2023-04-28T07:00:19;2.35;;;1.27;;
63398;SDS011;49533;-34.520;150.798;2023-04-28T07:02:46;3.38;;;1.67;;
63398;SDS011;49533;-34.520;150.798;2023-04-28T07:05:13;3.80;;;1.38;;
63398;SDS011;49533;-34.520;150.798;2023-04-28T07:07:40;3.25;;;1.45;;
63398;SDS011;49533;-34.520;150.798;2023-04-28T07:10:08;1.50;;;1.17;;
63398;SDS011;49533;-34.520;150.798;2023-04-28T07:12:35;2.55;;;1.08;;
63398;SDS011;49533;-34.520;150.798;2023-04-28T07:15:03;11.30;;;1.60;;
63398;SDS011;49533;-34.520;150.798;2023-04-28T07:17:30;1.85;;;1.33;;
63398;SDS011;49533;-34.520;150.798;2023-04-28T07:19:58;3.40;;;1.42;;
63398;SDS011;49533;-34.520;150.798;2023-04-28T07:22:25;3.38;;;1.48;;
63398;SDS011;49533;-34.520;150.798;2023-04-28T07:24:53;2.10;;;1.30;;
63398;SDS011;49533;-34.520;150.798;2023-04-28T07:27:20;4.57;;;1.73;;
63398;SDS011;49533;-34.520;150.798;2023-04-28T07:29:48;2.25;;;1.20;;
63398;SDS011;49533;-34.520;150.798;2023-04-28T07:32:15;5.07;;;1.83;;
63398;SDS011;49533;-34.520;150.798;2023-04-28T07:34:42;3.83;;;1.40;;
63398;SDS011;49533;-34.520;150.798;2023-04-28T07:37:10;3.17;;;1.40;;
63398;SDS011;49533;-34.520;150.798;2023-04-28T07:39:37;1.92;;;1.05;;
63398;SDS011;49533;-34.520;150.798;2023-04-28T07:42:05;4.07;;;1.73;;
63398;SDS011;49533;-34.520;150.798;2023-04-28T07:44:32;3.47;;;1.48;;
63398;SDS011;49533;-34.520;150.798;2023-04-28T07:46:59;2.78;;;1.40;;
63398;SDS011;49533;-34.520;150.798;2023-04-28T07:49:27;2.75;;;1.30;;
63398;SDS011;49533;-34.520;150.798;2023-04-28T07:51:55;4.80;;;1.65;;
63398;SDS011;49533;-34.520;150.798;2023-04-28T07:54:22;3.38;;;1.50;;
63398;SDS011;49533;-34.520;150.798;2023-04-28T07:56:51;2.40;;;1.23;;
63398;SDS011;49533;-34.520;150.798;2023-04-28T07:59:18;2.78;;;1.15;;
63398;SDS011;49533;-34.520;150.798;2023-04-28T08:01:45;1.40;;;1.10;;
63398;SDS011;49533;-34.520;150.798;2023-04-28T08:04:12;2.45;;;1.00;;
63398;SDS011;49533;-34.520;150.798;2023-04-28T08:06:40;1.77;;;1.17;;
63398;SDS011;49533;-34.520;150.798;2023-04-28T08:09:07;2.88;;;1.25;;
63398;SDS011;49533;-34.520;150.798;2023-04-28T08:11:34;2.17;;;1.20;;
63398;SDS011;49533;-34.520;150.798;2023-04-28T08:14:01;3.22;;;1.33;;
63398;SDS011;49533;-34.520;150.798;2023-04-28T08:16:29;2.33;;;1.00;;
63398;SDS011;49533;-34.520;150.798;2023-04-28T08:18:57;1.88;;;1.20;;
63398;SDS011;49533;-34.520;150.798;2023-04-28T08:21:24;2.38;;;1.35;;
63398;SDS011;49533;-34.520;150.798;2023-04-28T08:23:51;2.58;;;1.08;;
63398;SDS011;49533;-34.520;150.798;2023-04-28T08:26:19;2.13;;;1.35;;
63398;SDS011;49533;-34.520;150.798;2023-04-28T08:28:47;4.95;;;1.25;;
63398;SDS011;49533;-34.520;150.798;2023-04-28T08:31:15;1.20;;;1.10;;
63398;SDS011;49533;-34.520;150.798;2023-04-28T08:33:42;3.13;;;1.67;;
63398;SDS011;49533;-34.520;150.798;2023-04-28T08:36:13;1.95;;;1.25;;
63398;SDS011;49533;-34.520;150.798;2023-04-28T08:38:40;1.73;;;1.25;;
63398;SDS011;49533;-34.520;150.798;2023-04-28T08:41:08;1.60;;;1.02;;
63398;SDS011;49533;-34.520;150.798;2023-04-28T08:43:35;3.10;;;1.35;;
63398;SDS011;49533;-34.520;150.798;2023-04-28T08:46:05;1.33;;;1.23;;
63398;SDS011;49533;-34.520;150.798;2023-04-28T08:48:38;2.80;;;1.35;;
63398;SDS011;49533;-34.520;150.798;2023-04-28T08:51:08;2.70;;;1.30;;
63398;SDS011;49533;-34.520;150.798;2023-04-28T08:53:40;3.30;;;1.65;;
63398;SDS011;49533;-34.520;150.798;2023-04-28T08:56:10;1.92;;;1.55;;
63398;SDS011;49533;-34.520;150.798;2023-04-28T08:58:39;2.08;;;1.33;;
63398;SDS011;49533;-34.520;150.798;2023-04-28T09:01:07;3.53;;;1.40;;
63398;SDS011;49533;-34.520;150.798;2023-04-28T09:03:35;1.92;;;1.40;;
63398;SDS011;49533;-34.520;150.798;2023-04-28T09:06:02;3.72;;;1.77;;
63398;SDS011;49533;-34.520;150.798;2023-04-28T09:08:29;2.17;;;1.40;;
63398;SDS011;49533;-34.520;150.798;2023-04-28T09:11:05;3.88;;;1.50;;
63398;SDS011;49533;-34.520;150.798;2023-04-28T09:13:34;1.98;;;1.30;;
63398;SDS011;49533;-34.520;150.798;2023-04-28T09:16:02;2.50;;;1.38;;
63398;SDS011;49533;-34.520;150.798;2023-04-28T09:18:30;2.75;;;1.40;;
63398;SDS011;49533;-34.520;150.798;2023-04-28T09:21:05;3.22;;;1.83;;
63398;SDS011;49533;-34.520;150.798;2023-04-28T09:23:34;5.35;;;1.83;;
63398;SDS011;49533;-34.520;150.798;2023-04-28T09:26:13;5.20;;;1.85;;
63398;SDS011;49533;-34.520;150.798;2023-04-28T09:28:40;2.72;;;1.58;;
63398;SDS011;49533;-34.520;150.798;2023-04-28T09:31:21;3.45;;;1.73;;
63398;SDS011;49533;-34.520;150.798;2023-04-28T09:33:56;2.95;;;1.23;;
63398;SDS011;49533;-34.520;150.798;2023-04-28T09:36:28;3.72;;;1.60;;
63398;SDS011;49533;-34.520;150.798;2023-04-28T09:38:57;2.42;;;1.20;;
63398;SDS011;49533;-34.520;150.798;2023-04-28T09:41:35;4.22;;;1.65;;
63398;SDS011;49533;-34.520;150.798;2023-04-28T09:44:13;2.60;;;0.98;;
63398;SDS011;49533;-34.520;150.798;2023-04-28T09:46:43;1.77;;;1.38;;
63398;SDS011;49533;-34.520;150.798;2023-04-28T09:49:12;2.50;;;1.50;;
63398;SDS011;49533;-34.520;150.798;2023-04-28T09:51:40;3.58;;;1.55;;
63398;SDS011;49533;-34.520;150.798;2023-04-28T09:54:07;2.70;;;1.55;;
63398;SDS011;49533;-34.520;150.798;2023-04-28T09:56:35;3.08;;;1.85;;
63398;SDS011;49533;-34.520;150.798;2023-04-28T09:59:03;3.30;;;1.55;;
63398;SDS011;49533;-34.520;150.798;2023-04-28T10:01:32;1.67;;;1.30;;
63398;SDS011;49533;-34.520;150.798;2023-04-28T10:06:33;2.92;;;1.50;;
63398;SDS011;49533;-34.520;150.798;2023-04-28T10:09:01;1.77;;;1.55;;
63398;SDS011;49533;-34.520;150.798;2023-04-28T10:11:29;8.23;;;2.42;;
63398;SDS011;49533;-34.520;150.798;2023-04-28T10:13:57;2.83;;;1.95;;
63398;SDS011;49533;-34.520;150.798;2023-04-28T10:16:25;3.50;;;1.80;;
63398;SDS011;49533;-34.520;150.798;2023-04-28T10:18:55;4.95;;;2.00;;
63398;SDS011;49533;-34.520;150.798;2023-04-28T10:21:23;1.67;;;1.58;;
63398;SDS011;49533;-34.520;150.798;2023-04-28T10:23:59;3.28;;;1.77;;
63398;SDS011;49533;-34.520;150.798;2023-04-28T10:29:27;5.68;;;1.58;;
63398;SDS011;49533;-34.520;150.798;2023-04-28T10:34:43;4.38;;;1.92;;
63398;SDS011;49533;-34.520;150.798;2023-04-28T10:37:10;3.22;;;2.20;;
63398;SDS011;49533;-34.520;150.798;2023-04-28T10:39:40;3.60;;;2.10;;
63398;SDS011;49533;-34.520;150.798;2023-04-28T10:42:50;2.92;;;1.85;;
63398;SDS011;49533;-34.520;150.798;2023-04-28T10:45:43;2.83;;;1.95;;
63398;SDS011;49533;-34.520;150.798;2023-04-28T10:51:20;3.33;;;2.00;;
63398;SDS011;49533;-34.520;150.798;2023-04-28T10:56:35;2.15;;;1.80;;
63398;SDS011;49533;-34.520;150.798;2023-04-28T10:59:23;4.18;;;2.40;;
63398;SDS011;49533;-34.520;150.798;2023-04-28T11:01:51;2.55;;;1.90;;
63398;SDS011;49533;-34.520;150.798;2023-04-28T11:04:19;3.03;;;2.25;;
63398;SDS011;49533;-34.520;150.798;2023-04-28T11:07:07;2.25;;;2.05;;
63398;SDS011;49533;-34.520;150.798;2023-04-28T11:12:17;4.13;;;2.50;;
63398;SDS011;49533;-34.520;150.798;2023-04-28T11:14:44;2.65;;;2.42;;
63398;SDS011;49533;-34.520;150.798;2023-04-28T11:17:11;2.30;;;2.10;;
63398;SDS011;49533;-34.520;150.798;2023-04-28T11:19:41;3.72;;;2.00;;
63398;SDS011;49533;-34.520;150.798;2023-04-28T11:22:17;4.15;;;2.30;;
63398;SDS011;49533;-34.520;150.798;2023-04-28T11:24:54;3.17;;;2.35;;
63398;SDS011;49533;-34.520;150.798;2023-04-28T11:27:24;3.53;;;2.50;;
63398;SDS011;49533;-34.520;150.798;2023-04-28T11:29:53;3.75;;;2.35;;
63398;SDS011;49533;-34.520;150.798;2023-04-28T11:32:26;2.70;;;2.22;;
63398;SDS011;49533;-34.520;150.798;2023-04-28T11:34:55;3.13;;;2.40;;
63398;SDS011;49533;-34.520;150.798;2023-04-28T11:37:23;3.97;;;2.20;;
63398;SDS011;49533;-34.520;150.798;2023-04-28T11:39:51;4.95;;;2.40;;
63398;SDS011;49533;-34.520;150.798;2023-04-28T11:42:19;3.88;;;2.67;;
63398;SDS011;49533;-34.520;150.798;2023-04-28T11:44:48;3.78;;;2.40;;
63398;SDS011;49533;-34.520;150.798;2023-04-28T11:47:31;3.70;;;2.40;;
63398;SDS011;49533;-34.520;150.798;2023-04-28T11:49:59;2.50;;;2.30;;
63398;SDS011;49533;-34.520;150.798;2023-04-28T11:52:27;4.32;;;2.67;;
63398;SDS011;49533;-34.520;150.798;2023-04-28T11:54:55;5.13;;;2.58;;
63398;SDS011;49533;-34.520;150.798;2023-04-28T11:57:24;5.47;;;2.70;;
63398;SDS011;49533;-34.520;150.798;2023-04-28T11:59:52;2.97;;;2.63;;
63398;SDS011;49533;-34.520;150.798;2023-04-28T12:02:24;3.85;;;2.90;;
63398;SDS011;49533;-34.520;150.798;2023-04-28T12:04:53;3.03;;;2.40;;
63398;SDS011;49533;-34.520;150.798;2023-04-28T12:07:21;3.50;;;2.95;;
63398;SDS011;49533;-34.520;150.798;2023-04-28T12:12:36;3.38;;;2.83;;
63398;SDS011;49533;-34.520;150.798;2023-04-28T12:15:04;3.83;;;3.42;;
63398;SDS011;49533;-34.520;150.798;2023-04-28T12:17:34;3.33;;;3.03;;
63398;SDS011;49533;-34.520;150.798;2023-04-28T12:20:04;3.47;;;3.17;;
63398;SDS011;49533;-34.520;150.798;2023-04-28T12:22:43;5.15;;;3.13;;
63398;SDS011;49533;-34.520;150.798;2023-04-28T12:25:15;4.43;;;3.50;;
63398;SDS011;49533;-34.520;150.798;2023-04-28T12:30:30;3.38;;;3.05;;
63398;SDS011;49533;-34.520;150.798;2023-04-28T12:32:58;4.38;;;3.05;;
63398;SDS011;49533;-34.520;150.798;2023-04-28T12:35:27;5.05;;;3.55;;
63398;SDS011;49533;-34.520;150.798;2023-04-28T12:37:55;5.53;;;3.50;;
63398;SDS011;49533;-34.520;150.798;2023-04-28T12:40:23;4.10;;;3.70;;
63398;SDS011;49533;-34.520;150.798;2023-04-28T12:42:50;4.60;;;3.38;;
63398;SDS011;49533;-34.520;150.798;2023-04-28T12:45:18;4.20;;;3.80;;
63398;SDS011;49533;-34.520;150.798;2023-04-28T12:47:45;3.90;;;3.50;;
63398;SDS011;49533;-34.520;150.798;2023-04-28T12:50:12;5.50;;;3.50;;
63398;SDS011;49533;-34.520;150.798;2023-04-28T12:52:39;4.10;;;3.72;;
63398;SDS011;49533;-34.520;150.798;2023-04-28T12:55:07;4.13;;;3.80;;
63398;SDS011;49533;-34.520;150.798;2023-04-28T12:57:34;3.75;;;3.45;;
63398;SDS011;49533;-34.520;150.798;2023-04-28T13:00:02;5.22;;;3.72;;
63398;SDS011;49533;-34.520;150.798;2023-04-28T13:02:30;4.88;;;3.70;;
63398;SDS011;49533;-34.520;150.798;2023-04-28T13:04:57;4.20;;;3.80;;
63398;SDS011;49533;-34.520;150.798;2023-04-28T13:07:26;3.97;;;3.60;;
63398;SDS011;49533;-34.520;150.798;2023-04-28T13:09:54;7.28;;;3.60;;
63398;SDS011;49533;-34.520;150.798;2023-04-28T13:12:22;3.83;;;3.35;;
63398;SDS011;49533;-34.520;150.798;2023-04-28T13:14:50;4.57;;;3.65;;
63398;SDS011;49533;-34.520;150.798;2023-04-28T13:17:17;4.47;;;3.47;;
63398;SDS011;49533;-34.520;150.798;2023-04-28T13:19:44;3.83;;;3.53;;
63398;SDS011;49533;-34.520;150.798;2023-04-28T13:22:11;3.17;;;2.97;;
63398;SDS011;49533;-34.520;150.798;2023-04-28T13:24:39;3.30;;;3.05;;
63398;SDS011;49533;-34.520;150.798;2023-04-28T13:27:06;4.05;;;3.15;;
63398;SDS011;49533;-34.520;150.798;2023-04-28T13:29:34;3.40;;;3.10;;
63398;SDS011;49533;-34.520;150.798;2023-04-28T13:32:02;3.42;;;3.13;;
63398;SDS011;49533;-34.520;150.798;2023-04-28T13:34:30;4.00;;;3.40;;
63398;SDS011;49533;-34.520;150.798;2023-04-28T13:36:57;3.72;;;3.17;;
63398;SDS011;49533;-34.520;150.798;2023-04-28T13:39:25;3.28;;;3.00;;
63398;SDS011;49533;-34.520;150.798;2023-04-28T13:41:52;4.60;;;3.10;;
63398;SDS011;49533;-34.520;150.798;2023-04-28T13:44:20;4.15;;;3.22;;
63398;SDS011;49533;-34.520;150.798;2023-04-28T13:46:47;3.40;;;3.10;;
63398;SDS011;49533;-34.520;150.798;2023-04-28T13:49:14;2.83;;;2.63;;
63398;SDS011;49533;-34.520;150.798;2023-04-28T13:51:41;3.42;;;3.03;;
63398;SDS011;49533;-34.520;150.798;2023-04-28T13:54:10;3.53;;;3.22;;
63398;SDS011;49533;-34.520;150.798;2023-04-28T13:56:37;3.03;;;2.80;;
63398;SDS011;49533;-34.520;150.798;2023-04-28T13:59:04;4.07;;;3.20;;
63398;SDS011;49533;-34.520;150.798;2023-04-28T14:01:31;3.80;;;3.15;;
63398;SDS011;49533;-34.520;150.798;2023-04-28T14:03:58;3.88;;;3.10;;
63398;SDS011;49533;-34.520;150.798;2023-04-28T14:06:26;3.28;;;2.95;;
63398;SDS011;49533;-34.520;150.798;2023-04-28T14:08:53;3.40;;;3.10;;
63398;SDS011;49533;-34.520;150.798;2023-04-28T14:11:21;4.05;;;2.83;;
63398;SDS011;49533;-34.520;150.798;2023-04-28T14:13:49;4.80;;;2.72;;
63398;SDS011;49533;-34.520;150.798;2023-04-28T14:16:16;2.85;;;2.65;;
63398;SDS011;49533;-34.520;150.798;2023-04-28T14:18:43;3.80;;;2.95;;
63398;SDS011;49533;-34.520;150.798;2023-04-28T14:21:11;3.08;;;2.53;;
63398;SDS011;49533;-34.520;150.798;2023-04-28T14:23:38;3.20;;;2.90;;
63398;SDS011;49533;-34.520;150.798;2023-04-28T14:26:05;3.05;;;2.75;;
63398;SDS011;49533;-34.520;150.798;2023-04-28T14:28:32;3.03;;;2.47;;
63398;SDS011;49533;-34.520;150.798;2023-04-28T14:31:01;3.38;;;2.63;;
63398;SDS011;49533;-34.520;150.798;2023-04-28T14:33:31;3.03;;;2.80;;
63398;SDS011;49533;-34.520;150.798;2023-04-28T14:35:59;3.22;;;2.92;;
63398;SDS011;49533;-34.520;150.798;2023-04-28T14:38:27;2.97;;;2.63;;